Back to Top

Language: 

My Weather Underground Personal Weather Station Historical Data with Graphs...

Delerius Weather Station Historical Data
Daily Summary for July 19, 2017 Units:  English    Metric   Both
« Previous Day
Next Day »
Daily Weekly Monthly Yearly Custom
  High: Low: Average:
Temperature: 75.4 °F 59.4 °F 69.1 °F
Dew Point: 65.7 °F 55.7 °F 63.4 °F
Humidity: 90 % 67 % 82 %
Wind Speed: 11.0 mph 1.0 mph 5.4 mph
Wind Gust: 16.0 mph - -
Wind:- - SSE
Pressure: 29.93 in 29.57 in -
Precipitation: 0.00 in    
Historical Graphs
 
 
Tabular Data for July 19, 2017
Time Temperature Dew Point Pressure Wind Wind Speed Wind Gust Humidity Rainfall Rate (Hourly) solar Conditions
00:02 59.5 °F 55.7 °F 29.93 in ENE 1.0 mph 5.0 mph 87 % 0.00 in 0 W/m2
00:07 59.5 °F 55.7 °F 29.93 in ENE 1.0 mph 5.0 mph 87 % 0.00 in 0 W/m2
00:12 59.5 °F 55.7 °F 29.93 in ENE 1.0 mph 5.0 mph 87 % 0.00 in 0 W/m2
00:17 59.5 °F 55.7 °F 29.92 in ENE 1.0 mph 5.0 mph 87 % 0.00 in 0 W/m2
00:22 59.5 °F 55.7 °F 29.92 in ENE 1.0 mph 5.0 mph 87 % 0.00 in 0 W/m2
00:27 59.5 °F 56.0 °F 29.92 in ENE 1.0 mph 5.0 mph 88 % 0.00 in 0 W/m2
00:32 59.5 °F 56.0 °F 29.92 in ENE 1.0 mph 6.0 mph 88 % 0.00 in 0 W/m2
00:37 59.5 °F 56.0 °F 29.92 in ENE 2.0 mph 6.0 mph 88 % 0.00 in 0 W/m2
00:42 59.5 °F 56.0 °F 29.91 in NE 2.0 mph 6.0 mph 88 % 0.00 in 0 W/m2
00:47 59.4 °F 55.8 °F 29.91 in NE 2.0 mph 5.0 mph 88 % 0.00 in 0 W/m2
00:52 59.4 °F 56.1 °F 29.91 in NE 2.0 mph 5.0 mph 89 % 0.00 in 0 W/m2
00:57 59.4 °F 56.1 °F 29.91 in NE 2.0 mph 6.0 mph 89 % 0.00 in 0 W/m2
01:02 59.4 °F 56.1 °F 29.91 in NE 2.0 mph 6.0 mph 89 % 0.00 in 0 W/m2
01:07 59.4 °F 56.4 °F 29.91 in NE 1.0 mph 6.0 mph 90 % 0.00 in 0 W/m2
01:12 59.4 °F 56.4 °F 29.91 in East 1.0 mph 6.0 mph 90 % 0.00 in 0 W/m2
01:17 59.4 °F 56.4 °F 29.91 in ENE 2.0 mph 6.0 mph 90 % 0.00 in 0 W/m2
11:13 66.6 °F 61.9 °F 29.68 in East 4.0 mph 9.0 mph 85 % 0.00 in 139 W/m2
11:18 66.7 °F 62.1 °F 29.68 in ESE 3.0 mph 7.0 mph 85 % 0.00 in 123 W/m2
11:23 66.7 °F 61.7 °F 29.67 in East 4.0 mph 7.0 mph 84 % 0.00 in 144 W/m2
11:28 66.7 °F 61.7 °F 29.68 in East 4.0 mph 9.0 mph 84 % 0.00 in 88 W/m2
11:33 66.7 °F 61.7 °F 29.68 in ESE 4.0 mph 9.0 mph 84 % 0.00 in 60 W/m2
11:39 66.7 °F 61.7 °F 29.67 in ESE 4.0 mph 8.0 mph 84 % 0.00 in 65 W/m2
11:44 66.7 °F 61.7 °F 29.67 in East 3.0 mph 7.0 mph 84 % 0.00 in 84 W/m2
11:49 66.7 °F 62.1 °F 29.67 in East 3.0 mph 7.0 mph 85 % 0.00 in 83 W/m2
11:54 66.7 °F 62.4 °F 29.66 in East 2.0 mph 7.0 mph 86 % 0.00 in 148 W/m2
11:59 66.9 °F 62.6 °F 29.66 in ENE 2.0 mph 9.0 mph 86 % 0.00 in 202 W/m2
12:04 66.9 °F 62.6 °F 29.66 in ENE 3.0 mph 9.0 mph 86 % 0.00 in 267 W/m2
12:09 66.9 °F 62.9 °F 29.66 in ENE 3.0 mph 7.0 mph 87 % 0.00 in 272 W/m2
12:14 67.3 °F 63.3 °F 29.66 in ENE 4.0 mph 8.0 mph 87 % 0.00 in 325 W/m2
12:19 67.6 °F 63.3 °F 29.66 in ENE 5.0 mph 9.0 mph 86 % 0.00 in 390 W/m2
12:24 68.0 °F 63.7 °F 29.66 in East 5.0 mph 9.0 mph 86 % 0.00 in 538 W/m2
12:29 68.7 °F 63.7 °F 29.65 in East 5.0 mph 9.0 mph 84 % 0.00 in 520 W/m2
12:34 69.3 °F 63.9 °F 29.65 in East 5.0 mph 9.0 mph 83 % 0.00 in 436 W/m2
12:39 70.0 °F 64.2 °F 29.65 in East 4.0 mph 9.0 mph 82 % 0.00 in 315 W/m2
12:44 70.2 °F 63.3 °F 29.65 in ENE 3.0 mph 10.0 mph 79 % 0.00 in 387 W/m2
12:49 70.5 °F 64.0 °F 29.65 in ENE 4.0 mph 10.0 mph 80 % 0.00 in 570 W/m2
12:54 70.9 °F 63.7 °F 29.64 in East 4.0 mph 10.0 mph 78 % 0.00 in 413 W/m2
12:59 71.2 °F 63.7 °F 29.64 in ESE 4.0 mph 10.0 mph 77 % 0.00 in 431 W/m2
13:04 71.4 °F 63.8 °F 29.64 in ESE 4.0 mph 10.0 mph 77 % 0.00 in 506 W/m2
13:09 71.8 °F 64.2 °F 29.64 in ESE 4.0 mph 9.0 mph 77 % 0.00 in 318 W/m2
13:14 71.8 °F 63.8 °F 29.63 in ESE 4.0 mph 11.0 mph 76 % 0.00 in 429 W/m2
13:19 71.8 °F 64.2 °F 29.63 in ESE 4.0 mph 11.0 mph 77 % 0.00 in 292 W/m2
13:24 71.8 °F 64.2 °F 29.63 in East 5.0 mph 10.0 mph 77 % 0.00 in 313 W/m2
13:29 71.6 °F 64.0 °F 29.62 in East 5.0 mph 10.0 mph 77 % 0.00 in 341 W/m2
13:34 71.8 °F 64.2 °F 29.63 in ESE 5.0 mph 10.0 mph 77 % 0.00 in 295 W/m2
13:39 72.0 °F 64.4 °F 29.62 in SE 4.0 mph 10.0 mph 77 % 0.00 in 236 W/m2
13:44 72.1 °F 64.5 °F 29.62 in SE 4.0 mph 9.0 mph 77 % 0.00 in 299 W/m2
13:49 72.3 °F 64.3 °F 29.61 in SE 5.0 mph 9.0 mph 76 % 0.00 in 322 W/m2
13:54 72.7 °F 64.7 °F 29.61 in SE 4.0 mph 9.0 mph 76 % 0.00 in 327 W/m2
13:59 73.0 °F 64.3 °F 29.61 in ESE 3.0 mph 7.0 mph 74 % 0.00 in 334 W/m2
14:04 73.2 °F 63.6 °F 29.60 in East 4.0 mph 8.0 mph 72 % 0.00 in 357 W/m2
14:09 73.6 °F 64.0 °F 29.60 in East 5.0 mph 8.0 mph 72 % 0.00 in 371 W/m2
14:14 73.9 °F 63.5 °F 29.60 in ESE 5.0 mph 9.0 mph 70 % 0.00 in 267 W/m2
14:19 74.3 °F 63.9 °F 29.60 in ESE 5.0 mph 9.0 mph 70 % 0.00 in 374 W/m2
14:24 74.8 °F 64.4 °F 29.59 in ESE 4.0 mph 9.0 mph 70 % 0.00 in 489 W/m2
14:29 75.4 °F 64.1 °F 29.59 in SE 4.0 mph 10.0 mph 68 % 0.00 in 345 W/m2
14:34 75.4 °F 64.1 °F 29.59 in ESE 5.0 mph 10.0 mph 68 % 0.00 in 304 W/m2
14:40 75.4 °F 63.7 °F 29.59 in SE 6.0 mph 11.0 mph 67 % 0.00 in 287 W/m2
14:45 75.4 °F 63.7 °F 29.59 in SE 6.0 mph 11.0 mph 67 % 0.00 in 244 W/m2
14:50 75.4 °F 63.7 °F 29.59 in SSE 5.0 mph 10.0 mph 67 % 0.00 in 338 W/m2
14:55 75.4 °F 63.7 °F 29.59 in SSE 6.0 mph 10.0 mph 67 % 0.00 in 251 W/m2
15:00 75.4 °F 63.7 °F 29.59 in SSE 5.0 mph 10.0 mph 67 % 0.00 in 220 W/m2
15:05 75.4 °F 64.1 °F 29.58 in SSE 6.0 mph 10.0 mph 68 % 0.00 in 181 W/m2
15:10 75.2 °F 63.9 °F 29.58 in South 7.0 mph 14.0 mph 68 % 0.00 in 274 W/m2
15:15 74.8 °F 64.0 °F 29.58 in South 8.0 mph 14.0 mph 69 % 0.00 in 364 W/m2
15:20 74.7 °F 63.8 °F 29.58 in South 8.0 mph 13.0 mph 69 % 0.00 in 315 W/m2
15:25 74.7 °F 64.2 °F 29.58 in South 8.0 mph 15.0 mph 70 % 0.00 in 401 W/m2
15:30 74.7 °F 64.2 °F 29.58 in South 8.0 mph 15.0 mph 70 % 0.00 in 279 W/m2
15:35 74.7 °F 64.6 °F 29.58 in South 8.0 mph 13.0 mph 71 % 0.00 in 325 W/m2
15:40 74.8 °F 64.4 °F 29.58 in SSE 8.0 mph 14.0 mph 70 % 0.00 in 329 W/m2
15:45 74.7 °F 64.2 °F 29.58 in SSE 9.0 mph 16.0 mph 70 % 0.00 in 260 W/m2
15:50 74.3 °F 64.7 °F 29.57 in SSE 9.0 mph 16.0 mph 72 % 0.00 in 237 W/m2
15:55 73.9 °F 64.3 °F 29.57 in South 9.0 mph 14.0 mph 72 % 0.00 in 200 W/m2
16:00 73.6 °F 64.0 °F 29.57 in South 9.0 mph 15.0 mph 72 % 0.00 in 239 W/m2
16:05 73.6 °F 64.4 °F 29.57 in SSE 10.0 mph 16.0 mph 73 % 0.00 in 162 W/m2
16:10 73.0 °F 63.9 °F 29.57 in SSE 11.0 mph 16.0 mph 73 % 0.00 in 139 W/m2
16:15 72.9 °F 64.1 °F 29.57 in SSE 10.0 mph 16.0 mph 74 % 0.00 in 179 W/m2
16:20 72.9 °F 64.5 °F 29.57 in SSE 8.0 mph 16.0 mph 75 % 0.00 in 185 W/m2
16:25 72.9 °F 64.5 °F 29.57 in SSE 7.0 mph 11.0 mph 75 % 0.00 in 246 W/m2
16:30 73.0 °F 64.3 °F 29.57 in SSE 7.0 mph 13.0 mph 74 % 0.00 in 160 W/m2
16:35 73.0 °F 64.6 °F 29.57 in SSE 7.0 mph 13.0 mph 75 % 0.00 in 98 W/m2
16:40 72.9 °F 64.5 °F 29.57 in South 7.0 mph 13.0 mph 75 % 0.00 in 74 W/m2
16:45 72.5 °F 64.1 °F 29.57 in South 7.0 mph 14.0 mph 75 % 0.00 in 51 W/m2
16:51 72.1 °F 63.8 °F 29.57 in South 9.0 mph 15.0 mph 75 % 0.00 in 72 W/m2
16:55 72.0 °F 64.0 °F 29.57 in South 8.0 mph 15.0 mph 76 % 0.00 in 81 W/m2
17:00 71.8 °F 64.2 °F 29.57 in South 7.0 mph 14.0 mph 77 % 0.00 in 53 W/m2
17:05 71.8 °F 64.2 °F 29.57 in South 6.0 mph 9.0 mph 77 % 0.00 in 51 W/m2
17:06 71.8 °F 64.2 °F 29.57 in South 6.0 mph 9.0 mph 77 % 0.00 in 51 W/m2
17:11 71.6 °F 64.0 °F 29.57 in South 5.0 mph 9.0 mph 77 % 0.00 in 37 W/m2
17:16 71.4 °F 63.8 °F 29.57 in South 5.0 mph 9.0 mph 77 % 0.00 in 54 W/m2
17:21 71.4 °F 64.2 °F 29.57 in South 5.0 mph 8.0 mph 78 % 0.00 in 53 W/m2
17:26 71.2 °F 64.0 °F 29.57 in SSW 4.0 mph 8.0 mph 78 % 0.00 in 28 W/m2
17:31 71.2 °F 64.0 °F 29.57 in SSW 5.0 mph 9.0 mph 78 % 0.00 in 79 W/m2
17:36 71.1 °F 64.2 °F 29.57 in SSW 6.0 mph 9.0 mph 79 % 0.00 in 88 W/m2
17:41 71.1 °F 64.2 °F 29.57 in South 6.0 mph 11.0 mph 79 % 0.00 in 72 W/m2
17:46 71.1 °F 64.2 °F 29.57 in South 7.0 mph 12.0 mph 79 % 0.00 in 76 W/m2
17:51 70.7 °F 64.6 °F 29.57 in South 7.0 mph 12.0 mph 81 % 0.00 in 51 W/m2
17:56 70.5 °F 64.8 °F 29.57 in South 7.0 mph 11.0 mph 82 % 0.00 in 53 W/m2
18:01 70.3 °F 64.9 °F 29.57 in SSW 6.0 mph 11.0 mph 83 % 0.00 in 60 W/m2
18:06 70.0 °F 64.9 °F 29.57 in SSW 6.0 mph 11.0 mph 84 % 0.00 in 42 W/m2
18:11 69.6 °F 64.9 °F 29.57 in SSW 5.0 mph 9.0 mph 85 % 0.00 in 39 W/m2
18:16 69.4 °F 65.1 °F 29.57 in SSW 4.0 mph 7.0 mph 86 % 0.00 in 37 W/m2
18:21 69.3 °F 65.2 °F 29.57 in SSW 4.0 mph 7.0 mph 87 % 0.00 in 39 W/m2
18:26 69.3 °F 64.9 °F 29.57 in SSW 4.0 mph 8.0 mph 86 % 0.00 in 26 W/m2
18:31 69.1 °F 65.0 °F 29.57 in SSW 4.0 mph 8.0 mph 87 % 0.00 in 26 W/m2
18:36 68.9 °F 65.2 °F 29.57 in SSW 4.0 mph 8.0 mph 88 % 0.00 in 21 W/m2
18:41 68.7 °F 65.3 °F 29.57 in SSW 3.0 mph 6.0 mph 89 % 0.00 in 47 W/m2
18:46 68.7 °F 65.3 °F 29.57 in SSE 3.0 mph 7.0 mph 89 % 0.00 in 53 W/m2
18:51 68.5 °F 65.2 °F 29.57 in SE 3.0 mph 7.0 mph 89 % 0.00 in 47 W/m2
18:56 68.5 °F 65.2 °F 29.57 in SE 3.0 mph 7.0 mph 89 % 0.00 in 65 W/m2
19:01 68.5 °F 65.5 °F 29.57 in SE 3.0 mph 7.0 mph 90 % 0.00 in 72 W/m2
19:06 68.5 °F 65.5 °F 29.57 in SE 3.0 mph 6.0 mph 90 % 0.00 in 83 W/m2
19:11 68.5 °F 65.5 °F 29.57 in SSE 4.0 mph 8.0 mph 90 % 0.00 in 65 W/m2
19:16 68.7 °F 65.7 °F 29.57 in SSE 4.0 mph 8.0 mph 90 % 0.00 in 72 W/m2
19:21 68.7 °F 65.7 °F 29.57 in South 4.0 mph 8.0 mph 90 % 0.00 in 26 W/m2
19:26 68.9 °F 65.5 °F 29.57 in South 5.0 mph 9.0 mph 89 % 0.00 in 18 W/m2
19:31 68.9 °F 65.5 °F 29.57 in South 5.0 mph 9.0 mph 89 % 0.00 in 21 W/m2
19:37 69.1 °F 65.7 °F 29.57 in South 5.0 mph 8.0 mph 89 % 0.00 in 21 W/m2
19:42 69.1 °F 65.7 °F 29.58 in South 4.0 mph 8.0 mph 89 % 0.00 in 25 W/m2
19:47 69.1 °F 65.7 °F 29.57 in South 3.0 mph 6.0 mph 89 % 0.00 in 26 W/m2
19:52 69.1 °F 65.7 °F 29.58 in SSW 4.0 mph 7.0 mph 89 % 0.00 in 32 W/m2
19:57 69.1 °F 65.4 °F 29.58 in SSW 4.0 mph 7.0 mph 88 % 0.00 in 35 W/m2
20:02 69.3 °F 65.6 °F 29.58 in SSW 5.0 mph 7.0 mph 88 % 0.00 in 30 W/m2
20:07 69.1 °F 65.0 °F 29.58 in SSW 6.0 mph 11.0 mph 87 % 0.00 in 23 W/m2
20:12 69.3 °F 65.2 °F 29.58 in SSW 6.0 mph 11.0 mph 87 % 0.00 in 16 W/m2
20:17 69.3 °F 65.2 °F 29.58 in SSW 7.0 mph 10.0 mph 87 % 0.00 in 14 W/m2
20:22 69.1 °F 64.7 °F 29.58 in SSW 7.0 mph 11.0 mph 86 % 0.00 in 12 W/m2
20:27 69.1 °F 64.7 °F 29.58 in SSW 8.0 mph 12.0 mph 86 % 0.00 in 12 W/m2
20:32 69.1 °F 64.7 °F 29.58 in SSW 7.0 mph 12.0 mph 86 % 0.00 in 12 W/m2
20:37 69.1 °F 65.0 °F 29.58 in SSW 7.0 mph 10.0 mph 87 % 0.00 in 12 W/m2
20:43 68.9 °F 64.9 °F 29.58 in SSW 7.0 mph 10.0 mph 87 % 0.00 in 9 W/m2
20:47 68.9 °F 64.9 °F 29.58 in SSW 7.0 mph 15.0 mph 87 % 0.00 in 7 W/m2
20:53 68.7 °F 64.7 °F 29.58 in SSW 8.0 mph 15.0 mph 87 % 0.00 in 7 W/m2
20:58 68.7 °F 64.7 °F 29.58 in SSW 8.0 mph 13.0 mph 87 % 0.00 in 7 W/m2
21:03 68.7 °F 64.4 °F 29.58 in SSW 9.0 mph 14.0 mph 86 % 0.00 in 7 W/m2
21:08 68.5 °F 64.2 °F 29.58 in SSW 8.0 mph 14.0 mph 86 % 0.00 in 5 W/m2
21:13 68.5 °F 64.5 °F 29.58 in SSW 7.0 mph 12.0 mph 87 % 0.00 in 5 W/m2
21:18 68.5 °F 64.5 °F 29.58 in SSW 7.0 mph 12.0 mph 87 % 0.00 in 0 W/m2
21:23 68.4 °F 64.3 °F 29.59 in SSW 7.0 mph 14.0 mph 87 % 0.00 in 0 W/m2
21:28 68.4 °F 64.3 °F 29.58 in SSW 8.0 mph 14.0 mph 87 % 0.00 in 0 W/m2
21:33 68.2 °F 64.2 °F 29.58 in SSW 9.0 mph 14.0 mph 87 % 0.00 in 0 W/m2
21:34 68.2 °F 64.5 °F 29.58 in SSW 8.0 mph 14.0 mph 88 % 0.00 in 0 W/m2
21:39 68.2 °F 64.5 °F 29.59 in SSW 9.0 mph 14.0 mph 88 % 0.00 in 0 W/m2
21:44 68.2 °F 64.5 °F 29.58 in SSW 10.0 mph 16.0 mph 88 % 0.00 in 0 W/m2
21:49 67.8 °F 64.1 °F 29.59 in SSW 10.0 mph 16.0 mph 88 % 0.00 in 0 W/m2
21:54 67.8 °F 64.1 °F 29.59 in SSW 10.0 mph 16.0 mph 88 % 0.00 in 0 W/m2
21:59 67.8 °F 64.1 °F 29.59 in SSW 10.0 mph 16.0 mph 88 % 0.00 in 0 W/m2
22:04 67.8 °F 64.1 °F 29.59 in SSW 9.0 mph 15.0 mph 88 % 0.00 in 0 W/m2
22:09 67.8 °F 64.1 °F 29.59 in SW 8.0 mph 15.0 mph 88 % 0.00 in 0 W/m2
22:14 67.8 °F 64.1 °F 29.59 in SW 7.0 mph 11.0 mph 88 % 0.00 in 0 W/m2
22:15 67.8 °F 64.1 °F 29.59 in SW 7.0 mph 11.0 mph 88 % 0.00 in 0 W/m2
22:20 67.8 °F 64.1 °F 29.59 in SW 7.0 mph 12.0 mph 88 % 0.00 in 0 W/m2
22:25 67.8 °F 63.8 °F 29.59 in SW 8.0 mph 12.0 mph 87 % 0.00 in 0 W/m2
22:30 67.8 °F 63.8 °F 29.59 in SW 7.0 mph 12.0 mph 87 % 0.00 in 0 W/m2
22:35 67.8 °F 63.8 °F 29.59 in SW 6.0 mph 10.0 mph 87 % 0.00 in 0 W/m2
22:40 67.6 °F 63.6 °F 29.59 in SW 7.0 mph 11.0 mph 87 % 0.00 in 0 W/m2
22:45 67.6 °F 63.6 °F 29.59 in SW 7.0 mph 11.0 mph 87 % 0.00 in 0 W/m2
22:50 67.5 °F 63.5 °F 29.59 in SW 7.0 mph 11.0 mph 87 % 0.00 in 0 W/m2
22:55 67.3 °F 63.3 °F 29.59 in SW 7.0 mph 12.0 mph 87 % 0.00 in 0 W/m2
23:00 67.3 °F 63.3 °F 29.59 in SW 7.0 mph 12.0 mph 87 % 0.00 in 0 W/m2
23:05 67.1 °F 63.1 °F 29.59 in WSW 6.0 mph 12.0 mph 87 % 0.00 in 0 W/m2
23:10 67.1 °F 63.1 °F 29.59 in WSW 5.0 mph 12.0 mph 87 % 0.00 in 0 W/m2
23:15 66.9 °F 63.2 °F 29.59 in WSW 5.0 mph 9.0 mph 88 % 0.00 in 0 W/m2
23:20 66.9 °F 63.2 °F 29.59 in WSW 5.0 mph 12.0 mph 88 % 0.00 in 0 W/m2
23:25 66.9 °F 63.2 °F 29.59 in West 6.0 mph 12.0 mph 88 % 0.00 in 0 W/m2
23:27 66.9 °F 63.2 °F 29.59 in West 6.0 mph 12.0 mph 88 % 0.00 in 0 W/m2
23:32 66.9 °F 63.2 °F 29.59 in West 7.0 mph 12.0 mph 88 % 0.00 in 0 W/m2
23:37 66.7 °F 63.4 °F 29.59 in West 6.0 mph 12.0 mph 89 % 0.00 in 0 W/m2
23:42 66.7 °F 63.4 °F 29.60 in West 5.0 mph 9.0 mph 89 % 0.00 in 0 W/m2
23:47 66.7 °F 63.4 °F 29.60 in West 5.0 mph 10.0 mph 89 % 0.00 in 0 W/m2
23:52 66.7 °F 63.4 °F 29.60 in West 4.0 mph 10.0 mph 89 % 0.00 in 0 W/m2
23:57 66.6 °F 63.2 °F 29.60 in WSW 3.0 mph 7.0 mph 89 % 0.00 in 0 W/m2
Delerius-Weather
Compliments of Weather Underground - 1.75 mb

Data updates at regular intervals.